Time;durP1;ratioP1;P1;durP2;ratioP2;P2;SDS_P1;SDS_P2;PMS_P1;PMS_P2;Temp;Humidity;BMP_temperature;BMP_pressure;BME280_temperature;BME280_humidity;BME280_pressure;Samples;Min_cycle;Max_cycle;Signal;HPM_P1;HPM_P2
2022/06/10 00:02:19;;;;;;;0.90;0.40;;;;;;;18.46;86.54;100186.47;5042300;28;20052;-83
2022/06/10 00:04:57;;;;;;;1.13;0.45;;;;;;;18.44;86.54;100193.94;5052830;28;20049;-85
2022/06/10 00:19:24;;;;;;;2.83;0.50;;;;;;;18.45;83.96;100194.75;5263186;23;20054;-87
2022/06/10 00:21:50;;;;;;;1.27;0.40;;;;;;;18.51;84.01;100200.09;5054331;23;20301;-84
2022/06/10 00:24:34;;;;;;;3.22;0.55;;;;;;;18.51;82.84;100199.28;5373726;23;20020;-86
2022/06/10 00:29:45;;;;;;;1.63;0.33;;;;;;;18.61;80.95;100199.59;6023133;23;20962;-86
2022/06/10 00:35:30;;;;;;;1.33;0.57;;;;;;;18.76;79.77;100196.56;5055198;23;20042;-83
2022/06/10 00:48:41;;;;;;;1.27;0.20;;;;;;;18.83;74.18;100190.03;5104317;23;20072;-84
2022/06/10 00:51:13;;;;;;;2.28;0.40;;;;;;;18.80;73.91;100198.56;5019805;28;20042;-85
2022/06/10 00:53:40;;;;;;;1.20;0.35;;;;;;;18.80;73.64;100198.56;5020102;28;20447;-85
2022/06/10 00:56:32;;;;;;;1.50;0.30;;;;;;;18.76;73.21;100201.94;5016018;28;20034;-85
2022/06/10 00:59:03;;;;;;;0.68;0.25;;;;;;;18.71;72.64;100191.84;5022996;28;20061;-86
2022/06/10 01:01:31;;;;;;;6.53;0.82;;;;;;;18.73;72.15;100192.44;5023850;28;20059;-87
2022/06/10 01:04:26;;;;;;;2.65;0.50;;;;;;;18.73;71.94;100196.97;5017965;28;20018;-87
2022/06/10 01:10:21;;;;;;;3.63;0.40;;;;;;;18.68;71.40;100200.34;4832009;26;20050;-85
2022/06/10 01:13:12;;;;;;;3.33;0.95;;;;;;;18.76;70.96;100183.94;4987437;28;20576;-88
2022/06/10 01:16:16;;;;;;;0.85;0.30;;;;;;;18.75;70.61;100195.72;5039518;23;20085;-84
2022/06/10 01:19:30;;;;;;;4.85;0.60;;;;;;;18.73;70.52;100192.44;5010261;28;20054;-86
2022/06/10 01:22:16;;;;;;;3.28;0.20;;;;;;;18.73;70.59;100197.81;5034940;28;20076;-85
2022/06/10 01:25:37;;;;;;;7.85;1.00;;;;;;;18.81;70.16;100189.47;5031383;28;20069;-85
2022/06/10 01:31:09;;;;;;;0.93;0.20;;;;;;;18.81;69.43;100191.31;5221840;23;20050;-87
2022/06/10 01:33:58;;;;;;;2.72;0.35;;;;;;;18.78;69.35;100184.53;5024311;28;20025;-86
2022/06/10 01:36:36;;;;;;;0.40;0.30;;;;;;;18.79;69.72;100191.53;5019721;28;20038;-85
2022/06/10 01:39:08;;;;;;;5.90;0.73;;;;;;;18.80;69.68;100187.81;5030605;28;20045;-85
2022/06/10 01:42:11;;;;;;;1.55;0.40;;;;;;;18.81;68.57;100189.47;5022039;28;20098;-85
2022/06/10 01:45:00;;;;;;;0.98;0.20;;;;;;;18.91;67.71;100189.75;5016200;28;20524;-84
2022/06/10 01:51:19;;;;;;;3.20;0.30;;;;;;;19.06;66.93;100192.88;5032972;28;20041;-85
2022/06/10 01:53:54;;;;;;;1.67;0.40;;;;;;;19.04;66.63;100186.91;5035351;28;20338;-86
2022/06/10 01:56:37;;;;;;;2.25;0.47;;;;;;;19.04;65.62;100192.28;5020400;28;20034;-83
2022/06/10 01:59:40;;;;;;;4.95;0.32;;;;;;;19.04;65.54;100189.59;5018558;28;20029;-84
2022/06/10 02:02:33;;;;;;;6.65;0.88;;;;;;;19.08;65.58;100193.50;5028411;28;20050;-85
2022/06/10 02:05:09;;;;;;;1.65;0.60;;;;;;;19.05;65.34;100185.88;5030208;28;20041;-86
2022/06/10 02:08:34;;;;;;;4.78;0.30;;;;;;;19.04;65.17;100197.66;5378623;23;20124;-83
2022/06/10 02:15:00;;;;;;;2.67;0.38;;;;;;;19.15;64.51;100197.94;5139443;23;20085;-83
2022/06/10 02:17:35;;;;;;;2.20;0.40;;;;;;;19.08;65.00;100198.84;5037073;28;20065;-84
2022/06/10 02:20:01;;;;;;;3.72;0.40;;;;;;;19.07;65.86;100202.59;5007635;28;20053;-86
2022/06/10 02:23:08;;;;;;;2.22;0.32;;;;;;;18.97;65.05;100194.22;5036907;28;20030;-84
2022/06/10 02:25:51;;;;;;;3.28;0.40;;;;;;;18.99;65.26;100208.25;5036304;28;20561;-84
2022/06/10 02:34:57;;;;;;;2.13;0.30;;;;;;;18.81;66.64;100212.81;4979722;28;20079;-86
2022/06/10 02:38:05;;;;;;;5.75;0.55;;;;;;;18.76;66.81;100213.47;4961804;29;20039;-85
2022/06/10 02:41:26;;;;;;;4.70;0.45;;;;;;;18.72;66.48;100214.97;5040609;28;20033;-84
2022/06/10 02:56:44;;;;;;;1.95;0.40;;;;;;;18.68;65.66;100240.63;5032629;28;20053;-83
2022/06/10 03:02:36;;;;;;;2.65;0.40;;;;;;;18.74;65.60;100247.78;5035218;28;20045;-83
2022/06/10 03:08:43;;;;;;;2.72;0.30;;;;;;;18.73;65.36;100247.97;5038502;28;20075;-84
2022/06/10 03:11:31;;;;;;;4.13;0.30;;;;;;;18.70;65.90;100257.31;5038726;28;20029;-84
2022/06/10 03:14:22;;;;;;;0.90;0.40;;;;;;;18.73;65.87;100251.50;5037976;28;20041;-84
2022/06/10 03:26:31;;;;;;;6.47;0.60;;;;;;;18.45;65.00;100277.94;5123307;23;20050;-84
2022/06/10 03:30:23;;;;;;;3.65;0.50;;;;;;;18.41;64.62;100285.63;5015282;28;20173;-85
2022/06/10 03:33:22;;;;;;;1.23;0.43;;;;;;;18.37;63.87;100284.41;5007485;28;20134;-85
2022/06/10 03:36:11;;;;;;;3.70;0.50;;;;;;;18.34;63.75;100287.53;5001487;28;20033;-84
2022/06/10 03:39:02;;;;;;;3.65;0.43;;;;;;;18.36;63.08;100284.66;5044881;23;20056;-85
2022/06/10 03:41:51;;;;;;;;;;;;;;;18.41;63.30;100287.47;5037383;28;20049;-85
2022/06/10 03:44:19;;;;;;;1.55;0.50;;;;;;;18.57;62.19;100297.69;5115311;23;19917;-85
2022/06/10 03:50:32;;;;;;;3.72;0.45;;;;;;;18.68;60.18;100301.53;5039139;28;20041;-87
2022/06/10 03:53:06;;;;;;;0.65;0.40;;;;;;;18.90;59.77;100295.53;5038746;28;20041;-86
2022/06/10 03:55:57;;;;;;;5.60;0.30;;;;;;;18.83;58.91;100310.88;5038384;28;20037;-85
2022/06/10 03:59:45;;;;;;;5.75;0.40;;;;;;;18.81;58.87;100312.97;5035142;28;20069;-84
2022/06/10 04:13:29;;;;;;;3.17;0.40;;;;;;;18.73;57.94;100325.84;5417311;23;20275;-85
2022/06/10 04:15:58;;;;;;;2.13;0.40;;;;;;;18.76;57.41;100325.44;5003829;28;20042;-85
2022/06/10 04:18:23;;;;;;;0.90;0.30;;;;;;;18.86;56.95;100321.19;5018182;28;20026;-84
2022/06/10 04:20:49;;;;;;;1.58;0.40;;;;;;;18.98;56.22;100324.81;5001882;28;20065;-85
2022/06/10 04:23:29;;;;;;;2.63;0.43;;;;;;;19.17;56.65;100322.94;5018030;28;20095;-85
2022/06/10 04:26:22;;;;;;;3.95;0.43;;;;;;;19.46;55.45;100322.22;4998575;28;20041;-84
2022/06/10 04:29:04;;;;;;;4.97;0.50;;;;;;;19.68;54.05;100333.38;4995918;28;20042;-85
2022/06/10 04:31:52;;;;;;;3.85;0.30;;;;;;;19.67;53.39;100334.41;5018646;28;20090;-84
2022/06/10 04:35:23;;;;;;;0.73;0.30;;;;;;;19.81;53.30;100332.38;5000834;28;20046;-85
2022/06/10 04:38:25;;;;;;;1.85;0.43;;;;;;;19.83;53.49;100331.09;4965622;28;20038;-85
2022/06/10 04:41:15;;;;;;;3.15;0.40;;;;;;;19.82;53.49;100334.03;4999637;28;20043;-85
2022/06/10 04:44:02;;;;;;;1.70;0.32;;;;;;;19.88;53.55;100335.81;4999965;28;20090;-85
2022/06/10 04:46:47;;;;;;;4.93;0.40;;;;;;;20.06;52.99;100350.03;5015115;28;20053;-85
2022/06/10 04:49:15;;;;;;;2.87;0.30;;;;;;;20.15;52.32;100341.63;4999265;28;20069;-84
2022/06/10 04:51:41;;;;;;;1.85;0.43;;;;;;;20.23;52.57;100338.59;5006569;28;20034;-83
2022/06/10 04:54:08;;;;;;;1.27;0.32;;;;;;;20.33;52.33;100344.28;4998507;28;20061;-85
2022/06/10 04:56:35;;;;;;;2.00;0.40;;;;;;;20.37;52.51;100340.09;4999345;28;20038;-85
2022/06/10 04:59:00;;;;;;;2.28;0.70;;;;;;;20.54;52.17;100343.75;4982036;28;20038;-86
2022/06/10 05:01:26;;;;;;;3.17;0.50;;;;;;;20.57;51.05;100348.69;4998629;28;20463;-85
2022/06/10 05:03:52;;;;;;;2.85;0.57;;;;;;;20.63;50.65;100350.44;4997367;28;20488;-84
2022/06/10 05:06:17;;;;;;;4.28;0.47;;;;;;;20.74;51.36;100355.03;4995548;28;20396;-82
2022/06/10 05:08:43;;;;;;;2.05;0.40;;;;;;;20.73;51.47;100356.09;4996024;28;20045;-82
2022/06/10 05:11:08;;;;;;;3.97;0.40;;;;;;;20.85;51.27;100354.22;4996256;28;20070;-85
2022/06/10 05:13:36;;;;;;;1.45;0.52;;;;;;;20.86;50.87;100360.44;4996306;28;20053;-85
2022/06/10 05:16:03;;;;;;;2.28;0.30;;;;;;;20.79;50.76;100357.84;4979009;28;20042;-86
2022/06/10 05:18:30;;;;;;;1.38;0.30;;;;;;;20.82;50.72;100365.47;4996404;28;20073;-82
2022/06/10 05:20:56;;;;;;;1.58;0.70;;;;;;;20.82;50.67;100368.16;4978589;28;20031;-83
2022/06/10 05:23:24;;;;;;;1.58;0.52;;;;;;;20.86;51.04;100372.03;4996466;28;20097;-88
2022/06/10 05:25:50;;;;;;;2.90;0.65;;;;;;;20.90;50.92;100381.28;4996355;28;20062;-85
2022/06/10 05:28:16;;;;;;;6.03;0.85;;;;;;;20.95;50.67;100376.00;4976490;28;20042;-84
2022/06/10 05:30:43;;;;;;;1.60;0.70;;;;;;;21.11;51.00;100383.44;4998052;28;20034;-83
2022/06/10 05:33:10;;;;;;;4.45;0.50;;;;;;;21.19;50.00;100384.97;4997249;28;20038;-83
2022/06/10 05:35:37;;;;;;;1.42;0.68;;;;;;;21.29;49.89;100389.75;4996972;28;20062;-83
2022/06/10 05:38:03;;;;;;;1.83;0.43;;;;;;;21.28;49.46;100390.84;4997346;28;20026;-83
2022/06/10 05:40:31;;;;;;;3.28;0.52;;;;;;;21.29;49.21;100395.16;4996748;28;20085;-82
2022/06/10 05:42:57;;;;;;;2.50;0.40;;;;;;;21.41;49.41;100401.38;4995517;28;20497;-83
2022/06/10 05:45:24;;;;;;;3.22;0.40;;;;;;;21.48;48.74;100404.75;4995779;28;20058;-84
2022/06/10 05:47:55;;;;;;;9.65;0.55;;;;;;;21.68;48.84;100397.09;4994040;28;20042;-82
2022/06/10 05:50:21;;;;;;;3.53;0.40;;;;;;;21.94;47.50;100402.00;4995250;28;20112;-83
2022/06/10 05:52:47;;;;;;;5.63;0.40;;;;;;;22.14;46.39;100407.78;4978437;28;20034;-86
2022/06/10 05:55:12;;;;;;;1.75;0.40;;;;;;;22.28;43.29;100396.72;4995687;28;20038;-86
2022/06/10 05:57:57;;;;;;;4.15;0.47;;;;;;;22.46;43.01;100404.63;4998210;28;20519;-79
2022/06/10 06:00:27;;;;;;;5.20;0.45;;;;;;;22.64;41.43;100409.78;5012066;28;20053;-84
2022/06/10 06:02:53;;;;;;;3.35;0.50;;;;;;;22.78;41.18;100408.47;4998591;28;20062;-78
2022/06/10 06:05:20;;;;;;;2.50;0.45;;;;;;;22.87;39.24;100417.00;5016324;28;20037;-81
2022/06/10 06:07:48;;;;;;;4.78;0.50;;;;;;;23.14;38.83;100429.59;4997255;28;20072;-82
2022/06/10 06:10:17;;;;;;;3.20;0.30;;;;;;;23.48;37.19;100430.41;4996211;28;20432;-85
2022/06/10 06:12:43;;;;;;;1.23;0.28;;;;;;;23.92;36.09;100428.59;4983724;28;20034;-84
2022/06/10 06:15:10;;;;;;;10.38;0.40;;;;;;;24.32;34.49;100427.44;4994634;28;20034;-84
2022/06/10 06:17:36;;;;;;;1.40;0.20;;;;;;;24.49;33.35;100430.88;4962113;28;20047;-85
2022/06/10 06:20:03;;;;;;;9.38;0.60;;;;;;;24.44;32.50;100431.66;4995438;28;20037;-85
2022/06/10 06:22:28;;;;;;;5.13;0.57;;;;;;;24.50;32.07;100432.50;4969919;28;20035;-86
2022/06/10 06:24:54;;;;;;;1.90;0.52;;;;;;;25.31;30.76;100435.94;4979150;28;20046;-85
2022/06/10 06:27:23;;;;;;;1.55;0.25;;;;;;;25.33;30.94;100436.50;4975682;28;20039;-83
2022/06/10 06:29:48;;;;;;;3.55;0.32;;;;;;;25.77;30.09;100443.31;4995323;28;20116;-87
2022/06/10 06:32:14;;;;;;;1.73;0.28;;;;;;;25.53;30.29;100442.09;5000544;28;20503;-82
2022/06/10 06:34:40;;;;;;;0.93;0.20;;;;;;;26.20;30.16;100447.63;4998025;28;20030;-86
2022/06/10 06:37:13;;;;;;;4.82;0.40;;;;;;;26.04;30.80;100457.59;4980440;28;20107;-84
2022/06/10 06:39:40;;;;;;;4.13;0.82;;;;;;;26.85;30.11;100455.13;4998342;28;20027;-87
2022/06/10 06:42:06;;;;;;;3.65;0.90;;;;;;;27.58;27.58;100470.09;4991358;28;20035;-90
2022/06/10 06:44:41;;;;;;;5.55;0.50;;;;;;;27.61;27.14;100471.44;4962944;28;20030;-85
2022/06/10 06:47:14;;;;;;;4.57;0.50;;;;;;;27.16;27.32;100464.94;4976809;28;20046;-85
2022/06/10 06:49:41;;;;;;;1.58;0.45;;;;;;;27.17;27.41;100458.41;5003915;28;20027;-85
2022/06/10 06:52:08;;;;;;;3.42;0.30;;;;;;;27.42;26.96;100464.91;4986769;28;20666;-91
2022/06/10 06:54:36;;;;;;;1.83;0.52;;;;;;;28.79;24.68;100471.53;5001874;28;20105;-87
2022/06/10 06:57:05;;;;;;;1.50;0.47;;;;;;;28.62;24.88;100485.50;4986481;28;20223;-91
2022/06/10 06:59:32;;;;;;;4.70;0.30;;;;;;;28.95;24.35;100483.94;5001468;28;20042;-90
2022/06/10 07:01:58;;;;;;;2.97;0.47;;;;;;;28.60;24.92;100487.69;4984212;28;20133;-90
2022/06/10 07:04:26;;;;;;;6.68;0.50;;;;;;;29.12;24.50;100484.38;5001409;28;20122;-89
2022/06/10 07:06:52;;;;;;;6.43;0.35;;;;;;;29.19;24.77;100479.41;4983013;28;20065;-85
2022/06/10 07:09:18;;;;;;;2.05;0.43;;;;;;;29.45;24.23;100487.38;4965679;28;20492;-86
2022/06/10 07:11:44;;;;;;;7.50;0.35;;;;;;;29.79;24.08;100487.31;5000574;28;20056;-86
2022/06/10 07:14:10;;;;;;;3.75;0.40;;;;;;;30.08;22.92;100491.66;5001138;28;20038;-89
2022/06/10 07:16:36;;;;;;;2.70;0.20;;;;;;;28.81;24.41;100495.78;4985104;28;20404;-88
2022/06/10 07:19:02;;;;;;;10.07;0.40;;;;;;;28.67;24.40;100493.69;4987617;28;20038;-88
2022/06/10 07:21:30;;;;;;;4.68;0.40;;;;;;;29.12;24.09;100508.94;5007528;28;20031;-87
2022/06/10 07:24:00;;;;;;;1.25;0.40;;;;;;;28.68;24.32;100498.03;4995365;28;20098;-83
2022/06/10 07:26:26;;;;;;;2.78;0.10;;;;;;;29.04;24.47;100503.25;4968780;28;20038;-84
2022/06/10 07:28:56;;;;;;;0.63;0.20;;;;;;;29.38;24.35;100503.28;5026528;28;20515;-85
2022/06/10 07:31:23;;;;;;;2.58;0.20;;;;;;;29.21;24.24;100509.94;5023944;28;20041;-84
2022/06/10 07:33:58;;;;;;;1.65;0.30;;;;;;;30.57;23.06;100512.38;5012468;28;20083;-85
2022/06/10 07:36:24;;;;;;;9.30;0.30;;;;;;;29.35;24.73;100509.31;4992826;28;20029;-86
2022/06/10 07:38:49;;;;;;;2.30;0.50;;;;;;;28.92;25.41;100509.09;4984815;28;20066;-83
2022/06/10 07:44:02;;;;;;;2.90;0.28;;;;;;;29.75;23.97;100514.41;4968541;28;20053;-86
2022/06/10 07:46:31;;;;;;;2.95;0.25;;;;;;;29.69;23.16;100515.56;4981415;28;20102;-86
2022/06/10 07:49:01;;;;;;;4.72;0.40;;;;;;;30.15;23.54;100521.38;4996696;28;20408;-85
2022/06/10 07:51:26;;;;;;;4.75;0.50;;;;;;;29.62;23.70;100526.00;4967743;28;20073;-87
2022/06/10 07:53:52;;;;;;;4.45;0.52;;;;;;;30.15;23.23;100518.63;4984884;28;20035;-87
2022/06/10 07:56:22;;;;;;;3.47;0.20;;;;;;;30.04;22.91;100528.88;4965715;28;20129;-87
2022/06/10 07:58:49;;;;;;;5.32;0.32;;;;;;;29.72;23.36;100526.75;4971646;28;20066;-87
2022/06/10 08:01:19;;;;;;;1.80;0.20;;;;;;;29.43;24.57;100523.16;4984899;28;20035;-90
2022/06/10 08:03:45;;;;;;;5.32;0.50;;;;;;;29.69;24.24;100521.03;4958485;28;20039;-84
2022/06/10 08:06:11;;;;;;;6.97;0.60;;;;;;;29.21;25.39;100520.88;4985303;28;20027;-85
2022/06/10 08:08:40;;;;;;;3.47;0.45;;;;;;;29.35;25.41;100522.97;4955729;28;20042;-83
2022/06/10 08:11:05;;;;;;;2.53;0.60;;;;;;;30.12;24.93;100513.75;4964805;28;20042;-83
2022/06/10 08:13:34;;;;;;;4.70;0.65;;;;;;;29.90;24.55;100524.38;5001797;28;20042;-84
2022/06/10 08:16:00;;;;;;;1.95;0.40;;;;;;;29.62;24.28;100523.28;4989351;28;20073;-82
2022/06/10 08:18:31;;;;;;;0.75;0.30;;;;;;;29.52;23.76;100512.44;5006221;28;20057;-85
2022/06/10 08:23:45;;;;;;;4.25;0.30;;;;;;;30.44;23.80;100527.59;5003849;28;20104;-84
2022/06/10 08:26:12;;;;;;;1.60;0.20;;;;;;;30.35;22.99;100525.78;5004069;28;20192;-85
2022/06/10 08:28:43;;;;;;;0.75;0.20;;;;;;;30.53;22.98;100525.00;5003150;28;20061;-84
2022/06/10 08:31:12;;;;;;;3.38;0.30;;;;;;;30.33;23.10;100536.22;4989205;28;20106;-84
2022/06/10 08:33:42;;;;;;;4.75;0.30;;;;;;;30.57;22.96;100534.25;4990458;28;20034;-81
2022/06/10 08:36:09;;;;;;;0.95;0.30;;;;;;;30.33;22.69;100536.22;4995264;28;20065;-83
2022/06/10 08:38:41;;;;;;;2.72;0.32;;;;;;;30.54;22.56;100537.59;4962710;28;20081;-85
2022/06/10 08:41:31;;;;;;;4.75;0.30;;;;;;;30.54;23.18;100541.16;4973847;28;20051;-83
2022/06/10 08:44:11;;;;;;;2.22;0.20;;;;;;;31.00;22.71;100535.03;5005819;28;20038;-83
2022/06/10 08:47:04;;;;;;;2.15;0.20;;;;;;;31.32;21.96;100537.03;5002204;28;20034;-82
2022/06/10 08:49:48;;;;;;;2.28;0.20;;;;;;;31.33;21.38;100555.06;4987010;28;20033;-84
2022/06/10 08:52:52;;;;;;;1.05;0.20;;;;;;;31.79;22.31;100547.72;4987338;28;20041;-82
2022/06/10 08:55:45;;;;;;;1.85;0.20;;;;;;;32.19;21.05;100552.44;4938091;28;20543;-81
2022/06/10 08:58:24;;;;;;;4.00;0.40;;;;;;;31.34;21.86;100556.69;4964914;28;20027;-82
2022/06/10 09:00:52;;;;;;;5.43;0.30;;;;;;;32.01;21.71;100550.59;4983968;28;20023;-84
2022/06/10 09:03:30;;;;;;;0.77;0.30;;;;;;;32.09;19.85;100562.81;4987746;28;20026;-84
2022/06/10 09:05:59;;;;;;;1.63;0.40;;;;;;;32.13;20.10;100559.16;4984477;28;20329;-85
2022/06/10 09:08:30;;;;;;;4.75;0.30;;;;;;;32.00;21.10;100548.16;4962862;28;20423;-85
2022/06/10 09:11:20;;;;;;;1.33;0.32;;;;;;;32.36;20.39;100557.31;4982818;28;20023;-85
2022/06/10 09:13:53;;;;;;;2.03;0.50;;;;;;;32.38;20.67;100549.63;4984369;28;20050;-84
2022/06/10 09:16:35;;;;;;;4.40;0.25;;;;;;;31.39;22.31;100548.41;4982753;28;20045;-86
2022/06/10 09:19:19;;;;;;;5.43;0.30;;;;;;;31.87;20.39;100548.94;4986288;28;20136;-84
2022/06/10 09:21:48;;;;;;;3.08;0.20;;;;;;;31.96;21.25;100547.94;4985179;28;20034;-84
2022/06/10 09:24:46;;;;;;;2.60;0.50;;;;;;;31.86;22.12;100550.88;4986814;28;20072;-86
2022/06/10 09:27:20;;;;;;;3.33;0.40;;;;;;;31.81;21.55;100553.72;4987594;28;20038;-85
2022/06/10 09:29:46;;;;;;;1.42;0.30;;;;;;;32.10;22.23;100554.28;4984069;28;20034;-84
2022/06/10 09:32:28;;;;;;;2.90;0.32;;;;;;;31.68;22.25;100549.84;4987089;28;20492;-84
2022/06/10 09:35:06;;;;;;;5.18;0.30;;;;;;;31.75;22.75;100550.25;4986118;28;20039;-84
2022/06/10 09:37:49;;;;;;;5.38;0.50;;;;;;;31.75;23.04;100558.47;4966684;28;20392;-82
2022/06/10 09:40:38;;;;;;;7.18;0.52;;;;;;;31.73;22.77;100555.22;4993501;28;20395;-85
2022/06/10 09:43:06;;;;;;;4.43;0.47;;;;;;;31.56;21.70;100559.63;4990646;28;20110;-85
2022/06/10 09:45:45;;;;;;;1.85;0.30;;;;;;;31.36;22.32;100551.72;4961984;28;20542;-84
2022/06/10 09:48:20;;;;;;;1.02;0.20;;;;;;;30.99;22.00;100563.56;4978848;28;20046;-88
2022/06/10 09:51:14;;;;;;;5.38;0.20;;;;;;;31.15;22.25;100556.72;4982243;28;20035;-86
2022/06/10 09:54:08;;;;;;;3.05;0.50;;;;;;;31.56;21.96;100570.59;4974488;28;20031;-88
2022/06/10 09:57:21;;;;;;;1.00;0.20;;;;;;;31.47;21.97;100561.41;5001904;28;20042;-89
2022/06/10 09:59:46;;;;;;;;;;;;;;;32.02;22.58;100565.91;4977898;28;20083;-87
2022/06/10 10:02:34;;;;;;;6.75;0.60;;;;;;;32.32;21.49;100561.00;4994242;28;19929;-81
2022/06/10 10:05:00;;;;;;;3.95;0.40;;;;;;;32.10;20.75;100568.00;4968028;28;20031;-87
2022/06/10 10:07:52;;;;;;;2.15;0.20;;;;;;;32.21;21.11;100572.19;4976365;28;20049;-82
2022/06/10 10:10:53;;;;;;;4.57;0.30;;;;;;;32.18;20.81;100564.53;4990004;28;20038;-83
2022/06/10 10:13:33;;;;;;;4.53;0.30;;;;;;;32.05;19.87;100570.81;4983374;28;20539;-89
2022/06/10 10:16:46;;;;;;;3.00;0.30;;;;;;;31.75;19.95;100566.69;4994388;28;20082;-88
2022/06/10 10:19:34;;;;;;;4.50;1.30;;;;;;;32.18;22.14;100570.03;4976809;28;20228;-87
2022/06/10 10:21:59;;;;;;;3.70;0.80;;;;;;;32.60;22.26;100574.41;5002272;28;20549;-81
2022/06/10 10:24:26;;;;;;;2.80;0.60;;;;;;;32.62;20.67;100583.16;5002455;28;20149;-82
2022/06/10 10:26:56;;;;;;;3.88;0.50;;;;;;;32.52;20.73;100577.84;4999283;28;20469;-85
2022/06/10 10:29:29;;;;;;;7.13;0.32;;;;;;;32.88;19.74;100577.91;5004971;28;20031;-82
2022/06/10 10:32:02;;;;;;;4.05;0.70;;;;;;;32.78;20.11;100583.63;4976184;28;20054;-82
2022/06/10 10:34:34;;;;;;;4.85;0.40;;;;;;;33.14;19.48;100570.75;4976451;28;20046;-82
2022/06/10 10:37:08;;;;;;;3.88;0.40;;;;;;;33.06;20.32;100579.69;5003605;28;20073;-86
2022/06/10 10:39:47;;;;;;;2.08;0.10;;;;;;;32.71;19.97;100575.81;4988671;28;20047;-85
2022/06/10 10:42:27;;;;;;;1.95;0.40;;;;;;;32.65;21.41;100581.72;4989860;28;20078;-86
2022/06/10 10:45:07;;;;;;;1.08;0.25;;;;;;;32.56;21.92;100569.81;4977408;28;20062;-85
2022/06/10 10:47:36;;;;;;;4.15;0.40;;;;;;;32.61;21.28;100570.56;4991748;28;20074;-84
2022/06/10 10:50:04;;;;;;;1.80;0.50;;;;;;;32.51;21.19;100575.41;4985348;28;20068;-79
2022/06/10 10:52:44;;;;;;;2.03;0.35;;;;;;;32.20;19.34;100576.03;4973558;28;20066;-88
2022/06/10 10:55:14;;;;;;;3.80;0.30;;;;;;;32.56;18.97;100567.06;4987797;28;20047;-88
2022/06/10 10:57:51;;;;;;;5.72;0.20;;;;;;;32.58;21.93;100567.63;5006870;28;20045;-85
2022/06/10 11:00:17;;;;;;;3.55;0.30;;;;;;;32.84;20.37;100571.44;4996353;28;20041;-91
2022/06/10 11:02:51;;;;;;;1.95;0.30;;;;;;;33.42;21.32;100576.94;4997615;28;20537;-88
2022/06/10 11:05:26;;;;;;;2.20;0.30;;;;;;;32.81;19.11;100574.78;4983932;28;20511;-89
2022/06/10 11:08:17;;;;;;;10.43;0.60;;;;;;;32.38;20.04;100573.50;5007151;28;20042;-87
2022/06/10 11:11:00;;;;;;;7.75;0.50;;;;;;;32.54;20.01;100566.56;5007266;28;20065;-86
2022/06/10 11:13:58;;;;;;;4.22;0.28;;;;;;;31.79;19.82;100569.63;4988065;28;20035;-87
2022/06/10 11:16:23;;;;;;;8.77;0.32;;;;;;;31.32;20.75;100567.16;4957871;28;20050;-87
2022/06/10 11:18:51;;;;;;;4.53;0.52;;;;;;;31.77;20.50;100571.88;5000449;28;20427;-85
2022/06/10 11:21:18;;;;;;;1.85;0.30;;;;;;;31.93;19.75;100565.00;4987004;28;20033;-88
2022/06/10 11:23:52;;;;;;;1.95;0.43;;;;;;;31.87;19.86;100560.72;4970267;28;20448;-88
2022/06/10 11:26:20;;;;;;;1.85;0.25;;;;;;;31.38;20.38;100563.22;4996428;28;20050;-87
2022/06/10 11:29:22;;;;;;;3.78;0.63;;;;;;;30.96;20.36;100564.94;4972221;28;20065;-84
2022/06/10 11:31:56;;;;;;;4.43;0.20;;;;;;;30.25;21.18;100554.88;4995419;28;20045;-86
2022/06/10 11:34:58;;;;;;;1.08;0.90;;;;;;;30.08;20.47;100562.72;5016924;28;20042;-87
2022/06/10 11:37:27;;;;;;;4.13;0.88;;;;;;;29.71;20.79;100552.41;4994425;28;20047;-86
2022/06/10 11:40:05;;;;;;;1.42;0.43;;;;;;;29.47;21.40;100557.00;5011358;28;20038;-87
2022/06/10 11:42:59;;;;;;;1.63;0.35;;;;;;;29.23;21.45;100562.34;5004075;28;20168;-87
2022/06/10 11:45:31;;;;;;;0.88;0.17;;;;;;;29.20;21.84;100552.00;4967416;28;20061;-87
2022/06/10 11:48:30;;;;;;;2.17;0.20;;;;;;;28.93;21.46;100554.38;4980398;28;20086;-87
2022/06/10 11:51:05;;;;;;;4.57;0.30;;;;;;;28.67;21.77;100550.13;4987877;28;20105;-90
2022/06/10 11:53:54;;;;;;;10.38;0.63;;;;;;;28.44;22.68;100553.53;4950223;28;20054;-86
2022/06/10 11:59:56;;;;;;;2.13;0.22;;;;;;;28.51;25.06;100543.91;4947512;28;20046;-87
2022/06/10 12:02:57;;;;;;;6.18;0.38;;;;;;;28.71;23.23;100537.56;4963759;28;20038;-87
2022/06/10 12:05:38;;;;;;;3.67;0.20;;;;;;;28.90;24.14;100535.81;4945186;28;20498;-87
2022/06/10 12:08:11;;;;;;;1.63;0.22;;;;;;;28.97;25.06;100539.06;4980613;28;20073;-85
2022/06/10 12:11:05;;;;;;;2.17;0.10;;;;;;;29.11;23.97;100542.78;4979640;28;20412;-84
2022/06/10 12:13:37;;;;;;;2.30;0.30;;;;;;;29.26;22.95;100541.09;4991039;28;20034;-87
2022/06/10 12:16:04;;;;;;;0.70;0.20;;;;;;;29.30;22.89;100534.75;4987748;28;20392;-86
2022/06/10 12:18:34;;;;;;;0.75;0.10;;;;;;;28.93;22.89;100540.75;4967201;28;20145;-84
2022/06/10 12:21:03;;;;;;;0.60;0.20;;;;;;;28.72;23.94;100533.75;4986204;28;20033;-83
2022/06/10 12:23:33;;;;;;;1.25;0.20;;;;;;;28.68;23.13;100533.50;4994248;28;20096;-86
2022/06/10 12:26:12;;;;;;;1.35;0.20;;;;;;;28.52;24.33;100533.84;4992170;28;20417;-87
2022/06/10 12:28:42;;;;;;;2.95;0.20;;;;;;;28.51;24.74;100535.75;4994983;28;20042;-86
2022/06/10 12:31:28;;;;;;;5.22;0.95;;;;;;;28.56;24.46;100526.72;4995682;28;20041;-85
2022/06/10 12:34:04;;;;;;;1.00;0.40;;;;;;;28.56;24.08;100530.28;4976989;28;20069;-86
2022/06/10 12:36:59;;;;;;;4.28;0.38;;;;;;;28.53;23.93;100535.47;4996584;28;20065;-85
2022/06/10 12:39:32;;;;;;;1.58;0.40;;;;;;;28.53;24.23;100519.13;4976225;28;20660;-82
2022/06/10 12:42:13;;;;;;;0.63;0.20;;;;;;;28.45;24.41;100538.78;4975159;28;20038;-85
2022/06/10 12:44:42;;;;;;;2.92;0.30;;;;;;;28.35;24.48;100530.63;5003881;28;20078;-85
2022/06/10 12:47:12;;;;;;;0.90;0.25;;;;;;;28.21;25.03;100528.50;4963784;28;20038;-85
2022/06/10 12:49:41;;;;;;;2.63;0.20;;;;;;;28.15;24.45;100526.91;4976358;28;20070;-84
2022/06/10 12:52:17;;;;;;;1.67;0.40;;;;;;;28.22;24.28;100530.16;4977676;28;20130;-83
2022/06/10 12:54:48;;;;;;;6.47;0.15;;;;;;;28.31;24.91;100518.66;4994285;28;20097;-84
2022/06/10 12:57:38;;;;;;;2.08;0.20;;;;;;;28.37;25.45;100520.28;4994132;28;20038;-83
2022/06/10 13:00:22;;;;;;;4.25;0.38;;;;;;;28.38;24.98;100522.72;4979102;28;20555;-86
2022/06/10 13:02:52;;;;;;;0.80;0.25;;;;;;;28.18;24.41;100533.69;4994279;28;20042;-82
2022/06/10 13:05:42;;;;;;;3.47;0.20;;;;;;;28.07;25.26;100515.75;4994150;28;20048;-84
2022/06/10 13:08:47;;;;;;;0.55;0.10;;;;;;;28.35;25.32;100511.56;4981891;28;20081;-82
2022/06/10 13:11:35;;;;;;;1.20;0.38;;;;;;;28.50;25.94;100508.78;4994535;28;20034;-84
2022/06/10 13:14:22;;;;;;;0.20;0.10;;;;;;;28.62;25.25;100509.25;4946074;28;20093;-86
2022/06/10 13:16:57;;;;;;;2.67;0.30;;;;;;;28.63;25.85;100519.06;4969528;28;20060;-86
2022/06/10 13:19:29;;;;;;;0.45;0.20;;;;;;;28.58;25.13;100517.16;4987775;28;20128;-85
2022/06/10 13:21:55;;;;;;;0.85;0.20;;;;;;;28.47;25.45;100515.56;4992574;28;20030;-83
2022/06/10 13:24:21;;;;;;;1.00;0.10;;;;;;;28.41;23.87;100526.78;4972531;28;20490;-83
2022/06/10 13:26:47;;;;;;;1.38;0.17;;;;;;;28.44;25.09;100521.59;4995721;28;20037;-83
2022/06/10 13:29:18;;;;;;;3.20;0.20;;;;;;;28.35;24.21;100514.28;4995301;28;20038;-83
2022/06/10 13:31:55;;;;;;;1.73;0.20;;;;;;;28.43;24.38;100514.53;4977554;28;20034;-83
2022/06/10 13:34:38;;;;;;;2.83;0.75;;;;;;;28.48;25.11;100516.41;4991815;28;20562;-82
2022/06/10 13:37:14;;;;;;;2.53;0.57;;;;;;;28.55;25.01;100519.63;4973918;28;20044;-84
2022/06/10 13:39:44;;;;;;;4.68;0.25;;;;;;;28.60;24.44;100519.63;4990292;28;20066;-84
2022/06/10 13:42:31;;;;;;;3.08;0.30;;;;;;;28.37;24.39;100523.00;4998921;28;20038;-82
2022/06/10 13:45:28;;;;;;;0.73;0.20;;;;;;;28.20;25.20;100513.28;4978364;28;20027;-84
2022/06/10 13:48:21;;;;;;;5.50;0.38;;;;;;;28.27;25.36;100518.44;4987739;28;20043;-90
2022/06/10 13:53:38;;;;;;;2.83;0.30;;;;;;;28.08;25.46;100512.75;4998944;28;20126;-87
2022/06/10 13:56:12;;;;;;;1.60;0.10;;;;;;;28.04;26.28;100522.53;4986504;28;20034;-85
2022/06/10 13:58:43;;;;;;;1.15;0.40;;;;;;;27.97;26.18;100527.50;4972052;28;20057;-85